Time;durP1;ratioP1;P1;durP2;ratioP2;P2;SDS_P1;SDS_P2;PMS_P1;PMS_P2;Temp;Humidity;BMP_temperature;BMP_pressure;BME280_temperature;BME280_humidity;BME280_pressure;Samples;Min_cycle;Max_cycle;Signal;HPM_P1;HPM_P2
2023/12/26 00:00:48;;;;;;;4.38;1.80;;;9.10;99.90;;;;;;5048750;28;20041;-93
2023/12/26 00:03:13;;;;;;;3.47;1.60;;;9.30;99.90;;;;;;5030906;28;20033;-92
2023/12/26 00:05:40;;;;;;;4.18;1.80;;;9.30;99.90;;;;;;5041488;28;20112;-93
2023/12/26 00:08:07;;;;;;;5.05;1.80;;;9.40;99.90;;;;;;5048367;28;20032;-93
2023/12/26 00:10:34;;;;;;;4.47;1.60;;;9.50;99.90;;;;;;5079892;28;20032;-93
2023/12/26 00:13:00;;;;;;;4.18;1.52;;;9.40;99.90;;;;;;5059423;28;20052;-93
2023/12/26 00:15:27;;;;;;;4.65;1.60;;;9.20;99.90;;;;;;5062459;28;20028;-93
2023/12/26 00:17:52;;;;;;;2.92;1.42;;;9.30;99.90;;;;;;5065245;28;20074;-93
2023/12/26 00:20:18;;;;;;;4.55;1.50;;;9.30;99.90;;;;;;5077133;28;20024;-93
2023/12/26 00:22:44;;;;;;;3.33;1.50;;;9.30;99.90;;;;;;5060883;28;20036;-93
2023/12/26 00:25:11;;;;;;;4.65;1.80;;;9.50;99.90;;;;;;5048149;28;20089;-91
2023/12/26 00:27:38;;;;;;;2.38;1.38;;;9.20;99.90;;;;;;5048450;28;20282;-92
2023/12/26 00:30:05;;;;;;;4.63;1.42;;;9.50;99.90;;;;;;5075565;28;20036;-92
2023/12/26 00:32:31;;;;;;;4.38;1.60;;;9.40;99.90;;;;;;5075169;28;20033;-93
2023/12/26 00:34:58;;;;;;;3.15;1.40;;;9.50;99.90;;;;;;5041870;28;20285;-93
2023/12/26 00:37:24;;;;;;;3.83;1.60;;;9.40;99.90;;;;;;5045766;28;20099;-93
2023/12/26 00:39:50;;;;;;;4.03;1.50;;;9.20;99.90;;;;;;5064103;28;20060;-93
2023/12/26 00:42:15;;;;;;;3.40;1.42;;;9.30;99.90;;;;;;5058591;28;20123;-93
2023/12/26 00:44:41;;;;;;;3.35;1.45;;;9.30;99.90;;;;;;5077752;28;20123;-93
2023/12/26 00:47:07;;;;;;;5.13;1.80;;;9.60;99.90;;;;;;5064317;28;20372;-91
2023/12/26 00:49:33;;;;;;;4.53;1.60;;;9.30;99.90;;;;;;5075459;28;20100;-92
2023/12/26 00:51:58;;;;;;;2.28;1.30;;;9.60;99.90;;;;;;5047993;28;20037;-93
2023/12/26 00:54:24;;;;;;;3.50;1.30;;;9.60;99.90;;;;;;5061472;28;20035;-93
2023/12/26 00:56:50;;;;;;;2.72;1.40;;;9.40;99.90;;;;;;5028570;28;20048;-94
2023/12/26 00:59:15;;;;;;;1.77;1.23;;;9.60;99.90;;;;;;5046041;28;20360;-93
2023/12/26 01:01:41;;;;;;;3.70;1.25;;;9.50;99.90;;;;;;5076205;28;20245;-93
2023/12/26 01:04:07;;;;;;;2.40;1.30;;;9.30;99.90;;;;;;5039909;28;20094;-93
2023/12/26 01:06:33;;;;;;;3.47;1.50;;;9.60;99.90;;;;;;5029559;28;20246;-92
2023/12/26 01:08:58;;;;;;;3.75;1.40;;;9.60;99.90;;;;;;5074775;28;20021;-93
2023/12/26 01:11:24;;;;;;;3.30;1.35;;;9.40;99.90;;;;;;5046425;28;20365;-94
2023/12/26 01:13:50;;;;;;;5.72;1.60;;;9.30;99.90;;;;;;5081121;28;20052;-93
2023/12/26 01:16:16;;;;;;;4.65;1.30;;;9.60;99.90;;;;;;5066400;28;20051;-93
2023/12/26 01:18:42;;;;;;;2.80;1.17;;;9.60;99.90;;;;;;5064568;28;20052;-93
2023/12/26 01:21:08;;;;;;;4.35;1.73;;;9.70;99.90;;;;;;5050481;28;20655;-93
2023/12/26 01:23:34;;;;;;;3.53;1.58;;;9.70;99.90;;;;;;5047656;28;20290;-93
2023/12/26 01:26:00;;;;;;;6.78;1.63;;;9.40;99.90;;;;;;5050067;28;20108;-94
2023/12/26 01:28:26;;;;;;;4.97;1.63;;;9.70;99.90;;;;;;5049605;28;20028;-93
2023/12/26 01:30:52;;;;;;;5.93;1.30;;;9.60;99.90;;;;;;5032594;28;20097;-93
2023/12/26 01:33:17;;;;;;;4.28;1.30;;;9.30;99.90;;;;;;5047214;28;20028;-94
2023/12/26 01:35:43;;;;;;;6.05;1.60;;;9.40;99.90;;;;;;5064529;28;20104;-93
2023/12/26 01:38:09;;;;;;;6.47;2.20;;;9.70;99.90;;;;;;5050698;28;20367;-94
2023/12/26 01:40:35;;;;;;;5.97;1.70;;;9.60;99.90;;;;;;5077894;28;20028;-93
2023/12/26 01:43:00;;;;;;;7.38;1.83;;;9.60;99.90;;;;;;5080183;28;20712;-93
2023/12/26 01:45:26;;;;;;;6.72;1.60;;;9.60;99.90;;;;;;5050408;28;20189;-93
2023/12/26 01:47:59;;;;;;;6.47;1.55;;;9.40;99.90;;;;;;5064146;28;20096;-93
2023/12/26 01:50:25;;;;;;;8.55;1.80;;;9.50;99.90;;;;;;5064695;28;20127;-91
2023/12/26 01:52:52;;;;;;;7.80;1.70;;;9.60;99.90;;;;;;5061730;28;20053;-91
2023/12/26 01:55:19;;;;;;;6.43;2.22;;;9.70;99.90;;;;;;5048475;28;20031;-94
2023/12/26 01:57:46;;;;;;;8.00;1.70;;;9.40;99.90;;;;;;5050465;28;20036;-93
2023/12/26 02:00:12;;;;;;;8.27;1.67;;;9.70;99.90;;;;;;5065242;28;20032;-93
2023/12/26 02:02:38;;;;;;;7.75;1.88;;;9.40;99.90;;;;;;5064106;28;20090;-93
2023/12/26 02:05:05;;;;;;;10.40;2.25;;;9.70;99.90;;;;;;5031288;28;20246;-93
2023/12/26 02:07:31;;;;;;;8.73;2.20;;;9.60;99.90;;;;;;5066135;28;20095;-93
2023/12/26 02:09:56;;;;;;;7.85;2.05;;;9.50;99.90;;;;;;5083842;28;20103;-92
2023/12/26 02:12:22;;;;;;;7.95;1.88;;;9.60;99.90;;;;;;5031315;28;20036;-91
2023/12/26 02:14:48;;;;;;;9.75;1.95;;;9.60;99.90;;;;;;5051135;28;20020;-94
2023/12/26 02:17:23;;;;;;;11.10;2.15;;;9.50;99.90;;;;;;5075554;28;20033;-93
2023/12/26 02:19:49;;;;;;;11.02;2.33;;;9.30;99.90;;;;;;5097406;28;20182;-93
2023/12/26 02:22:14;;;;;;;11.65;2.30;;;9.60;99.90;;;;;;5061100;28;20058;-94
2023/12/26 02:24:43;;;;;;;9.60;2.00;;;9.30;99.90;;;;;;5066161;28;20048;-93
2023/12/26 02:27:19;;;;;;;9.90;2.13;;;9.30;99.90;;;;;;5064450;28;20262;-93
2023/12/26 02:29:48;;;;;;;12.95;2.42;;;9.40;99.90;;;;;;5066954;28;20044;-93
2023/12/26 02:32:18;;;;;;;13.35;2.50;;;9.60;99.90;;;;;;5064359;28;20024;-92
2023/12/26 02:34:45;;;;;;;11.27;3.03;;;9.50;99.90;;;;;;5081027;28;20035;-93
2023/12/26 02:37:11;;;;;;;10.77;2.42;;;9.60;99.90;;;;;;5048931;28;20078;-92
2023/12/26 02:39:39;;;;;;;10.02;2.65;;;9.50;99.90;;;;;;5047819;28;20025;-92
2023/12/26 02:42:05;;;;;;;11.23;1.90;;;9.50;99.90;;;;;;5056012;28;20072;-92
2023/12/26 02:44:31;;;;;;;12.55;2.60;;;9.40;99.90;;;;;;5043049;28;21109;-94
2023/12/26 02:46:57;;;;;;;9.55;2.30;;;9.30;99.90;;;;;;5061896;28;20048;-93
2023/12/26 02:49:22;;;;;;;9.68;2.30;;;9.50;99.90;;;;;;5047022;28;20056;-92
2023/12/26 02:51:48;;;;;;;12.80;2.72;;;9.40;99.90;;;;;;5028156;28;20067;-93
2023/12/26 02:54:14;;;;;;;12.73;2.97;;;9.30;99.90;;;;;;5033886;28;20143;-94
2023/12/26 02:56:40;;;;;;;12.88;2.45;;;9.20;99.90;;;;;;5046630;28;20286;-93
2023/12/26 02:59:05;;;;;;;13.98;2.88;;;9.30;99.90;;;;;;5017458;28;20111;-93
2023/12/26 03:01:31;;;;;;;10.75;2.53;;;9.30;99.90;;;;;;5027636;28;20030;-92
2023/12/26 03:03:57;;;;;;;10.90;2.33;;;9.20;99.90;;;;;;5032443;28;20029;-94
2023/12/26 03:06:23;;;;;;;7.35;2.20;;;9.20;99.90;;;;;;5027682;28;20121;-92
2023/12/26 03:08:49;;;;;;;8.57;2.05;;;9.30;99.90;;;;;;5003569;28;20076;-92
2023/12/26 03:11:14;;;;;;;8.77;2.33;;;9.00;99.90;;;;;;5054370;28;20033;-93
2023/12/26 03:13:40;;;;;;;10.85;2.17;;;9.20;99.90;;;;;;5022068;28;20083;-92
2023/12/26 03:16:06;;;;;;;9.95;2.28;;;9.00;99.90;;;;;;5046445;28;20099;-93
2023/12/26 03:18:32;;;;;;;7.70;2.05;;;8.90;99.90;;;;;;5029712;28;20452;-92
2023/12/26 03:20:57;;;;;;;10.35;2.20;;;8.90;99.90;;;;;;5029699;28;20029;-93
2023/12/26 03:23:23;;;;;;;10.30;2.10;;;8.90;99.90;;;;;;5027370;28;20092;-93
2023/12/26 03:25:49;;;;;;;9.82;2.10;;;9.10;99.90;;;;;;5030105;28;20036;-93
2023/12/26 03:28:16;;;;;;;8.65;2.08;;;8.90;99.90;;;;;;5032936;28;20048;-93
2023/12/26 03:30:41;;;;;;;12.45;2.38;;;8.80;99.90;;;;;;5031302;28;20082;-93
2023/12/26 03:33:07;;;;;;;9.90;2.85;;;8.80;99.90;;;;;;5048127;28;20028;-92
2023/12/26 03:35:33;;;;;;;10.18;2.20;;;8.90;99.90;;;;;;5027588;28;20056;-92
2023/12/26 03:37:58;;;;;;;13.02;2.42;;;8.60;99.90;;;;;;5049126;28;20029;-91
2023/12/26 03:40:24;;;;;;;10.65;2.60;;;8.60;99.90;;;;;;5064038;28;20075;-92
2023/12/26 03:42:50;;;;;;;10.85;2.65;;;8.80;99.90;;;;;;5042019;28;20049;-93
2023/12/26 03:45:16;;;;;;;10.90;2.00;;;8.70;99.90;;;;;;5030086;28;20040;-93
2023/12/26 03:47:42;;;;;;;7.75;1.95;;;8.60;99.90;;;;;;5048013;28;20024;-94
2023/12/26 03:50:10;;;;;;;10.20;2.08;;;8.80;99.90;;;;;;5059180;28;20184;-93
2023/12/26 03:52:36;;;;;;;11.02;2.20;;;8.70;99.90;;;;;;5046213;28;20036;-92
2023/12/26 03:55:02;;;;;;;12.65;2.67;;;8.70;99.90;;;;;;5034827;28;20033;-93
2023/12/26 03:57:28;;;;;;;12.10;2.35;;;8.60;99.90;;;;;;5031748;28;20591;-92
2023/12/26 03:59:54;;;;;;;12.60;2.58;;;8.70;99.90;;;;;;5056831;28;20049;-93
2023/12/26 04:02:19;;;;;;;10.35;2.20;;;8.60;99.90;;;;;;5028399;28;20053;-93
2023/12/26 04:04:46;;;;;;;11.90;2.40;;;8.50;99.90;;;;;;5051804;28;20025;-93
2023/12/26 04:07:11;;;;;;;11.30;2.33;;;8.70;99.90;;;;;;5047502;28;20032;-92
2023/12/26 04:09:37;;;;;;;11.48;2.60;;;8.40;99.90;;;;;;5051058;28;20493;-93
2023/12/26 04:12:03;;;;;;;10.88;2.50;;;8.40;99.90;;;;;;5067161;28;20090;-93
2023/12/26 04:14:29;;;;;;;13.57;2.70;;;8.40;99.90;;;;;;5064277;28;20029;-93
2023/12/26 04:16:54;;;;;;;15.55;2.78;;;8.40;99.90;;;;;;5042584;28;20056;-93
2023/12/26 04:19:20;;;;;;;10.52;2.28;;;8.30;99.90;;;;;;5011966;28;20029;-92
2023/12/26 04:21:46;;;;;;;11.73;2.75;;;8.40;99.90;;;;;;5026360;28;20040;-94
2023/12/26 04:24:11;;;;;;;13.15;2.75;;;8.30;99.90;;;;;;5044901;28;20026;-93
2023/12/26 04:26:37;;;;;;;13.00;2.65;;;8.30;99.90;;;;;;5032980;28;20156;-93
2023/12/26 04:29:03;;;;;;;9.25;2.65;;;8.10;99.90;;;;;;5043896;28;20056;-93
2023/12/26 04:31:29;;;;;;;12.77;2.97;;;8.10;99.90;;;;;;5025028;28;20045;-94
2023/12/26 04:33:54;;;;;;;12.95;2.50;;;8.10;99.90;;;;;;5025957;28;20159;-93
2023/12/26 04:36:20;;;;;;;13.13;2.63;;;8.10;99.90;;;;;;5044626;28;20307;-94
2023/12/26 04:38:46;;;;;;;14.40;3.40;;;8.10;99.90;;;;;;5026679;28;20384;-94
2023/12/26 04:41:12;;;;;;;13.60;2.63;;;8.10;99.90;;;;;;5031683;28;20106;-94
2023/12/26 04:43:39;;;;;;;12.32;2.70;;;8.10;99.90;;;;;;5079522;28;20055;-93
2023/12/26 04:46:04;;;;;;;13.65;2.97;;;8.10;99.90;;;;;;5065628;28;20040;-94
2023/12/26 04:48:30;;;;;;;12.10;2.90;;;8.00;99.90;;;;;;5077091;28;20031;-93
2023/12/26 04:50:56;;;;;;;10.25;2.40;;;8.10;99.90;;;;;;5035336;28;20092;-93
2023/12/26 04:53:24;;;;;;;12.85;3.05;;;8.00;99.90;;;;;;5048076;28;20028;-93
2023/12/26 04:55:50;;;;;;;11.38;3.00;;;8.00;99.90;;;;;;5050342;28;20025;-94
2023/12/26 04:58:15;;;;;;;13.85;2.85;;;8.00;99.90;;;;;;5047451;28;20036;-93
2023/12/26 05:00:43;;;;;;;13.15;2.90;;;8.10;99.90;;;;;;5068036;28;20033;-94
2023/12/26 05:03:09;;;;;;;13.13;2.92;;;8.20;99.90;;;;;;5052162;28;20044;-94
2023/12/26 05:05:34;;;;;;;11.82;2.65;;;8.10;99.90;;;;;;5064423;28;20220;-94
2023/12/26 05:08:00;;;;;;;10.95;2.40;;;8.20;99.90;;;;;;5048864;28;20031;-94
2023/12/26 05:10:26;;;;;;;14.50;2.78;;;8.20;99.90;;;;;;5065487;28;20095;-93
2023/12/26 05:12:52;;;;;;;15.68;2.63;;;8.10;99.90;;;;;;5067279;28;20291;-95
2023/12/26 05:15:18;;;;;;;12.32;3.13;;;8.10;99.90;;;;;;5050754;28;20024;-94
2023/12/26 05:17:44;;;;;;;15.75;3.35;;;8.10;99.90;;;;;;5065130;28;20052;-92
2023/12/26 05:20:10;;;;;;;11.57;2.67;;;8.10;99.90;;;;;;5046067;28;20040;-93
2023/12/26 05:22:36;;;;;;;10.60;2.58;;;8.20;99.90;;;;;;5051273;28;20085;-93
2023/12/26 05:25:02;;;;;;;12.77;2.65;;;8.10;99.90;;;;;;5029608;28;20028;-93
2023/12/26 05:27:27;;;;;;;10.32;2.97;;;8.10;99.90;;;;;;5051616;28;20070;-93
2023/12/26 05:29:53;;;;;;;12.70;3.03;;;8.20;99.90;;;;;;5062962;28;20039;-93
2023/12/26 05:32:19;;;;;;;13.65;3.05;;;8.10;99.90;;;;;;5048239;28;20035;-93
2023/12/26 05:34:45;;;;;;;16.25;2.92;;;8.20;99.90;;;;;;5063881;28;20269;-94
2023/12/26 05:37:11;;;;;;;13.30;2.80;;;8.20;99.90;;;;;;5061362;28;20059;-93
2023/12/26 05:39:36;;;;;;;11.75;3.13;;;8.10;99.90;;;;;;5053367;28;20070;-91
2023/12/26 05:42:03;;;;;;;10.32;2.38;;;8.20;99.90;;;;;;5048867;28;20040;-92
2023/12/26 05:44:28;;;;;;;10.68;3.25;;;8.30;99.90;;;;;;5047582;28;20115;-92
2023/12/26 05:46:54;;;;;;;15.38;2.78;;;8.30;99.90;;;;;;5048476;28;20036;-92
2023/12/26 05:49:20;;;;;;;11.45;2.72;;;8.20;99.90;;;;;;5047461;28;20145;-93
2023/12/26 05:51:46;;;;;;;9.35;2.33;;;8.20;99.90;;;;;;5030717;28;20051;-91
2023/12/26 05:54:11;;;;;;;11.55;2.63;;;8.30;99.90;;;;;;5061209;28;20036;-92
2023/12/26 05:56:37;;;;;;;11.43;2.83;;;8.30;99.90;;;;;;5057791;28;20032;-92
2023/12/26 05:59:03;;;;;;;12.32;2.70;;;8.20;99.90;;;;;;5051152;28;20052;-93
2023/12/26 06:01:29;;;;;;;12.45;2.38;;;8.20;99.90;;;;;;5070084;28;20023;-92
2023/12/26 06:03:54;;;;;;;12.32;3.05;;;8.20;99.90;;;;;;5037815;28;20089;-93
2023/12/26 06:06:21;;;;;;;10.73;2.85;;;8.20;99.90;;;;;;5051704;28;20099;-92
2023/12/26 06:08:47;;;;;;;10.45;2.53;;;8.30;99.90;;;;;;5056110;28;20028;-94
2023/12/26 06:11:12;;;;;;;11.52;3.05;;;8.30;99.90;;;;;;5084144;28;20995;-93
2023/12/26 06:13:38;;;;;;;11.98;2.72;;;8.20;99.90;;;;;;5053106;28;20066;-92
2023/12/26 06:16:04;;;;;;;11.23;2.80;;;8.30;99.90;;;;;;5068003;28;20230;-92
2023/12/26 06:18:30;;;;;;;8.43;2.22;;;8.30;99.90;;;;;;5058954;28;20036;-93
2023/12/26 06:20:56;;;;;;;12.18;2.55;;;8.30;99.90;;;;;;5053497;28;20040;-93
2023/12/26 06:23:21;;;;;;;12.93;2.38;;;8.30;99.90;;;;;;5067674;28;20197;-93
2023/12/26 06:25:47;;;;;;;12.95;2.20;;;8.30;99.90;;;;;;5050555;28;20354;-92
2023/12/26 06:28:13;;;;;;;10.40;2.10;;;8.30;99.90;;;;;;5053374;28;20087;-93
2023/12/26 06:30:39;;;;;;;10.75;2.45;;;8.30;99.90;;;;;;5048492;28;20027;-93
2023/12/26 06:33:04;;;;;;;11.70;3.03;;;8.40;99.90;;;;;;5050222;28;20036;-93
2023/12/26 06:35:30;;;;;;;10.80;2.10;;;8.20;99.90;;;;;;5053261;28;20088;-94
2023/12/26 06:37:56;;;;;;;13.45;2.20;;;8.30;99.90;;;;;;5067735;28;20051;-94
2023/12/26 06:40:22;;;;;;;10.85;2.83;;;8.30;99.90;;;;;;5049233;28;20282;-93
2023/12/26 06:42:47;;;;;;;10.68;2.30;;;8.20;99.90;;;;;;5052427;28;20044;-93
2023/12/26 06:45:13;;;;;;;10.55;2.88;;;8.20;99.90;;;;;;5037398;28;20032;-93
2023/12/26 06:47:40;;;;;;;9.40;2.40;;;8.20;99.90;;;;;;5072819;28;20032;-93
2023/12/26 06:50:06;;;;;;;11.25;2.20;;;8.30;99.90;;;;;;5048721;28;20070;-93
2023/12/26 06:52:32;;;;;;;10.65;2.47;;;8.30;99.90;;;;;;5064325;28;20048;-93
2023/12/26 06:54:58;;;;;;;9.88;2.47;;;8.20;99.90;;;;;;5063878;28;20074;-92
2023/12/26 06:57:24;;;;;;;16.55;3.50;;;8.20;99.90;;;;;;5069834;28;20038;-92
2023/12/26 06:59:52;;;;;;;10.00;2.30;;;8.20;99.90;;;;;;5051076;28;20266;-94
2023/12/26 07:02:18;;;;;;;9.63;2.33;;;8.20;99.90;;;;;;5070125;28;20032;-93
2023/12/26 07:04:44;;;;;;;13.48;3.20;;;8.20;99.90;;;;;;5034174;28;21049;-93
2023/12/26 07:07:11;;;;;;;12.27;2.35;;;8.20;99.90;;;;;;5031928;28;20040;-92
2023/12/26 07:09:37;;;;;;;14.18;2.83;;;8.20;99.90;;;;;;5084874;28;20143;-93
2023/12/26 07:12:03;;;;;;;13.30;2.90;;;8.30;99.90;;;;;;5050791;28;20174;-92
2023/12/26 07:14:29;;;;;;;13.68;2.60;;;8.30;99.90;;;;;;5081324;28;20082;-93
2023/12/26 07:16:55;;;;;;;11.02;3.28;;;8.20;99.90;;;;;;5052719;28;20044;-94
2023/12/26 07:19:21;;;;;;;12.40;2.90;;;8.20;99.90;;;;;;5072581;28;20077;-92
2023/12/26 07:21:46;;;;;;;14.55;4.13;;;8.20;99.90;;;;;;5054216;28;20091;-93
2023/12/26 07:24:12;;;;;;;10.90;2.50;;;8.20;99.90;;;;;;5053297;28;20035;-92
2023/12/26 07:26:38;;;;;;;12.35;2.63;;;8.10;99.90;;;;;;5070284;28;20075;-94
2023/12/26 07:29:04;;;;;;;14.60;3.88;;;8.20;99.90;;;;;;5089581;28;20051;-93
2023/12/26 07:31:30;;;;;;;11.50;2.53;;;8.20;99.90;;;;;;5067287;28;20035;-93
2023/12/26 07:33:57;;;;;;;12.93;3.00;;;8.10;99.90;;;;;;5084270;28;20024;-93
2023/12/26 07:36:26;;;;;;;10.40;2.67;;;8.10;99.90;;;;;;5049179;28;20069;-93
2023/12/26 07:38:52;;;;;;;10.43;2.85;;;8.20;99.90;;;;;;5069335;28;20107;-94
2023/12/26 07:41:18;;;;;;;12.63;2.88;;;8.10;99.90;;;;;;5068985;28;20051;-94
2023/12/26 07:43:44;;;;;;;14.25;2.55;;;8.10;99.90;;;;;;5049319;28;20033;-93
2023/12/26 07:46:10;;;;;;;12.10;3.13;;;8.20;99.90;;;;;;5050415;28;20056;-93
2023/12/26 07:48:36;;;;;;;11.70;2.65;;;8.10;99.90;;;;;;5038437;28;20024;-93
2023/12/26 07:51:02;;;;;;;12.88;2.72;;;8.20;99.90;;;;;;5083188;28;20031;-94
2023/12/26 07:53:28;;;;;;;12.85;2.90;;;8.10;99.90;;;;;;5061694;28;20105;-93
2023/12/26 07:55:53;;;;;;;12.65;2.50;;;8.20;99.90;;;;;;5024970;28;20020;-93
2023/12/26 07:58:19;;;;;;;11.75;2.65;;;8.20;99.90;;;;;;5046608;28;20091;-93
2023/12/26 08:00:45;;;;;;;14.35;2.70;;;8.20;99.90;;;;;;5042330;28;20052;-92
2023/12/26 08:03:15;;;;;;;11.93;2.60;;;8.20;99.90;;;;;;5074774;28;20020;-92
2023/12/26 08:05:42;;;;;;;11.75;3.30;;;8.20;99.90;;;;;;5033434;28;20051;-93
2023/12/26 08:08:10;;;;;;;12.75;2.90;;;8.30;99.90;;;;;;5040944;28;20038;-93
2023/12/26 08:10:36;;;;;;;16.40;3.03;;;8.30;99.90;;;;;;5057836;28;20028;-91
2023/12/26 08:13:02;;;;;;;12.18;2.50;;;8.20;99.90;;;;;;5054577;28;20039;-91
2023/12/26 08:15:27;;;;;;;14.82;3.35;;;8.30;99.90;;;;;;5052477;28;20031;-93
2023/12/26 08:17:53;;;;;;;10.27;2.50;;;8.30;99.90;;;;;;5036182;28;20120;-92
2023/12/26 08:20:19;;;;;;;10.35;2.80;;;8.20;99.90;;;;;;5038566;28;20071;-93
2023/12/26 08:22:44;;;;;;;12.77;2.40;;;8.30;99.90;;;;;;5041089;28;20119;-90
2023/12/26 08:25:10;;;;;;;13.02;2.55;;;8.20;99.90;;;;;;5055949;28;20043;-93
2023/12/26 08:27:37;;;;;;;11.18;2.80;;;8.10;99.90;;;;;;5038960;28;20042;-92
2023/12/26 08:30:04;;;;;;;15.25;2.92;;;8.30;99.90;;;;;;5057305;28;20066;-93
2023/12/26 08:32:29;;;;;;;11.50;2.75;;;8.30;99.90;;;;;;5044940;28;20099;-93
2023/12/26 08:34:55;;;;;;;11.93;2.58;;;8.20;99.90;;;;;;5080845;28;20055;-93
2023/12/26 08:37:21;;;;;;;13.98;2.97;;;8.20;99.90;;;;;;5061657;28;20121;-94
2023/12/26 08:39:48;;;;;;;12.23;3.83;;;8.30;99.90;;;;;;5064665;28;20055;-95
2023/12/26 08:42:14;;;;;;;11.82;2.75;;;8.20;99.90;;;;;;5057646;28;20058;-93
2023/12/26 08:44:40;;;;;;;13.52;2.80;;;8.30;99.90;;;;;;5085069;28;20044;-93
2023/12/26 08:47:05;;;;;;;16.35;3.10;;;8.20;99.90;;;;;;5071787;28;20077;-93
2023/12/26 08:49:31;;;;;;;13.45;2.97;;;8.20;99.90;;;;;;5052100;28;20227;-92
2023/12/26 08:51:58;;;;;;;13.43;2.92;;;8.30;99.90;;;;;;5079182;28;20172;-93
2023/12/26 08:54:24;;;;;;;8.05;2.40;;;8.20;99.90;;;;;;5074713;28;20111;-94
2023/12/26 08:56:49;;;;;;;14.40;2.95;;;8.20;99.90;;;;;;5046593;28;20083;-93
2023/12/26 08:59:15;;;;;;;11.30;2.60;;;8.30;99.90;;;;;;5055280;28;20050;-94
2023/12/26 09:01:41;;;;;;;12.70;2.65;;;8.30;99.90;;;;;;5043120;28;20110;-93
2023/12/26 09:04:07;;;;;;;11.57;2.50;;;8.30;99.90;;;;;;5045247;28;20096;-94
2023/12/26 09:06:33;;;;;;;11.00;2.28;;;8.30;99.90;;;;;;5041494;28;20040;-94
2023/12/26 09:08:59;;;;;;;13.73;2.63;;;8.30;99.90;;;;;;5044539;28;20040;-94
2023/12/26 09:11:25;;;;;;;15.13;3.08;;;8.40;99.90;;;;;;5039790;28;20119;-94
2023/12/26 09:13:50;;;;;;;11.40;2.58;;;8.30;99.90;;;;;;5039529;28;20035;-92
2023/12/26 09:16:16;;;;;;;12.45;3.63;;;8.40;99.90;;;;;;5041979;28;20454;-94
2023/12/26 09:18:42;;;;;;;10.35;2.63;;;8.50;99.90;;;;;;5055408;28;20075;-94
2023/12/26 09:21:08;;;;;;;11.10;3.05;;;8.50;99.90;;;;;;5044135;28;20064;-94
2023/12/26 09:23:33;;;;;;;11.15;2.55;;;8.40;99.90;;;;;;5039644;28;20119;-94
2023/12/26 09:26:03;;;;;;;15.00;3.30;;;8.50;99.90;;;;;;5054466;28;20040;-94
2023/12/26 09:28:30;;;;;;;11.35;2.65;;;8.50;99.90;;;;;;5057767;28;20043;-93
2023/12/26 09:30:56;;;;;;;11.75;2.72;;;8.50;99.90;;;;;;5080417;28;20051;-94
2023/12/26 09:33:22;;;;;;;12.35;2.83;;;8.50;99.90;;;;;;5064428;28;20493;-93
2023/12/26 09:35:48;;;;;;;12.38;2.58;;;8.60;99.90;;;;;;5056199;28;20046;-94
2023/12/26 09:38:13;;;;;;;9.82;2.63;;;8.60;99.90;;;;;;5062224;28;20019;-93
2023/12/26 09:40:39;;;;;;;10.13;2.63;;;8.50;99.90;;;;;;5058934;28;20361;-93
2023/12/26 09:43:07;;;;;;;10.27;2.10;;;8.50;99.90;;;;;;5090625;28;20040;-94
2023/12/26 09:45:33;;;;;;;10.68;2.28;;;8.60;99.90;;;;;;5069875;28;20044;-93
2023/12/26 09:47:58;;;;;;;14.02;2.92;;;8.60;99.90;;;;;;5041864;28;20075;-92
2023/12/26 09:50:24;;;;;;;12.82;2.97;;;8.70;99.90;;;;;;5061349;28;20040;-92
2023/12/26 09:52:59;;;;;;;14.05;3.22;;;8.60;99.90;;;;;;5063170;28;20039;-93
2023/12/26 09:55:28;;;;;;;11.40;2.65;;;8.70;99.90;;;;;;5066735;28;20126;-94
2023/12/26 09:58:00;;;;;;;11.55;3.15;;;8.70;99.90;;;;;;5046721;28;20044;-93
2023/12/26 10:00:27;;;;;;;14.13;3.10;;;8.70;99.90;;;;;;5062799;28;20037;-93
2023/12/26 10:02:53;;;;;;;9.82;2.45;;;8.70;99.90;;;;;;5075677;28;20043;-93
2023/12/26 10:05:19;;;;;;;14.85;2.83;;;8.60;99.90;;;;;;5082312;28;20057;-94
2023/12/26 10:07:45;;;;;;;13.65;2.90;;;8.60;99.90;;;;;;5038920;28;20119;-94
2023/12/26 10:10:12;;;;;;;11.75;2.42;;;8.60;99.90;;;;;;5043154;28;20067;-93
2023/12/26 10:12:39;;;;;;;14.07;3.22;;;8.70;99.90;;;;;;5038567;28;20044;-94
2023/12/26 10:15:06;;;;;;;13.52;2.58;;;8.70;99.90;;;;;;5059141;28;20123;-95
2023/12/26 10:17:33;;;;;;;12.20;2.80;;;8.70;99.90;;;;;;5066565;28;20047;-93
2023/12/26 10:19:59;;;;;;;10.48;2.63;;;8.70;99.90;;;;;;5063701;28;20034;-94
2023/12/26 10:22:25;;;;;;;14.65;2.80;;;8.80;99.90;;;;;;5084310;28;20032;-94
2023/12/26 10:24:52;;;;;;;12.55;2.90;;;8.80;99.90;;;;;;5067154;28;20028;-94
2023/12/26 10:27:18;;;;;;;16.27;3.30;;;8.80;99.90;;;;;;5070553;28;20024;-94
2023/12/26 10:29:57;;;;;;;11.48;2.40;;;8.80;99.90;;;;;;5087199;28;20184;-94
2023/12/26 10:32:26;;;;;;;13.35;3.17;;;8.90;99.90;;;;;;5063343;28;20190;-95
2023/12/26 10:34:53;;;;;;;10.00;2.60;;;8.90;99.90;;;;;;5068604;28;20032;-95
2023/12/26 10:37:25;;;;;;;15.45;2.97;;;8.90;99.90;;;;;;5054070;28;20028;-94
2023/12/26 10:39:51;;;;;;;14.13;3.15;;;8.90;99.90;;;;;;5087596;28;20036;-94
2023/12/26 10:42:18;;;;;;;16.20;3.50;;;9.00;99.90;;;;;;5063777;28;20044;-94
2023/12/26 10:45:10;;;;;;;13.75;3.83;;;8.90;99.90;;;;;;5067739;28;20063;-93
2023/12/26 10:47:42;;;;;;;11.32;2.65;;;9.00;99.90;;;;;;5076812;28;20190;-93
2023/12/26 10:50:09;;;;;;;13.77;3.15;;;9.00;99.90;;;;;;5080803;28;20047;-94
2023/12/26 10:52:40;;;;;;;13.85;2.58;;;9.10;99.90;;;;;;5058466;28;20401;-95
2023/12/26 10:55:07;;;;;;;13.05;2.53;;;9.00;99.90;;;;;;5076271;28;20035;-94
2023/12/26 10:57:35;;;;;;;11.57;3.13;;;9.10;99.90;;;;;;5054551;28;20043;-94
2023/12/26 13:51:51;;;;;;;4.78;1.27;;;8.60;99.90;;;;;;5077290;28;20067;-91
2023/12/26 13:54:16;;;;;;;8.18;1.60;;;8.40;99.90;;;;;;5046932;28;20028;-92
2023/12/26 13:56:42;;;;;;;4.82;1.50;;;8.10;99.90;;;;;;5049446;28;20103;-91
2023/12/26 13:59:08;;;;;;;4.53;1.40;;;8.00;99.90;;;;;;5052172;28;20056;-92
2023/12/26 14:01:34;;;;;;;6.90;1.80;;;7.90;99.90;;;;;;5056580;28;20042;-90
2023/12/26 14:04:00;;;;;;;7.15;1.60;;;7.80;99.90;;;;;;5039350;28;20330;-89
2023/12/26 14:06:26;;;;;;;5.35;1.52;;;7.80;99.90;;;;;;5037936;28;20084;-92
2023/12/26 14:08:52;;;;;;;7.50;1.80;;;7.90;99.90;;;;;;5042218;28;20516;-91
2023/12/26 14:11:19;;;;;;;5.13;1.60;;;7.70;99.90;;;;;;5077848;28;20045;-91
2023/12/26 14:13:45;;;;;;;6.75;2.08;;;8.10;99.90;;;;;;5063763;28;20052;-92
2023/12/26 14:16:12;;;;;;;6.22;1.70;;;7.70;99.90;;;;;;5062747;28;20115;-92
2023/12/26 14:18:37;;;;;;;6.05;1.45;;;7.70;99.90;;;;;;5063703;28;20043;-92
2023/12/26 14:21:03;;;;;;;9.55;2.08;;;7.70;99.90;;;;;;5066879;28;20064;-92
2023/12/26 14:23:29;;;;;;;6.78;1.70;;;8.00;99.90;;;;;;5063781;28;20040;-92
2023/12/26 14:25:55;;;;;;;7.22;1.67;;;8.00;99.90;;;;;;5049543;28;20518;-93
2023/12/26 14:28:22;;;;;;;6.72;1.90;;;8.00;99.90;;;;;;5049536;28;20075;-91
2023/12/26 14:30:47;;;;;;;7.00;1.75;;;7.80;99.90;;;;;;5052603;28;20044;-93
2023/12/26 14:33:22;;;;;;;6.47;1.60;;;7.70;99.90;;;;;;5041295;28;20098;-92
2023/12/26 14:35:51;;;;;;;7.07;1.50;;;7.70;99.90;;;;;;5048631;28;20048;-91
2023/12/26 14:38:17;;;;;;;7.53;1.80;;;7.70;99.90;;;;;;5040834;28;20062;-92
2023/12/26 14:40:44;;;;;;;6.50;1.70;;;7.70;99.90;;;;;;5073554;28;20032;-91
2023/12/26 14:43:10;;;;;;;8.35;2.03;;;7.60;99.90;;;;;;5023064;28;20206;-92
2023/12/26 14:45:36;;;;;;;5.00;1.70;;;7.50;99.90;;;;;;5034573;28;20481;-90
2023/12/26 14:48:03;;;;;;;6.63;1.60;;;7.40;99.90;;;;;;5050712;28;20037;-92
2023/12/26 14:50:30;;;;;;;6.35;1.85;;;7.40;99.90;;;;;;5069257;28;20048;-92
2023/12/26 14:52:56;;;;;;;6.95;1.67;;;7.40;99.90;;;;;;5056662;28;20048;-90
2023/12/26 14:55:22;;;;;;;10.43;1.80;;;7.60;99.90;;;;;;5040316;28;20041;-92
2023/12/26 14:57:48;;;;;;;7.82;1.70;;;7.30;99.90;;;;;;5070933;28;20036;-92
2023/12/26 15:00:13;;;;;;;5.85;1.50;;;7.20;99.90;;;;;;5057086;28;20043;-92
2023/12/26 15:02:39;;;;;;;6.82;1.70;;;7.20;99.90;;;;;;5028353;28;20036;-92
2023/12/26 15:05:05;;;;;;;9.07;1.88;;;7.20;99.90;;;;;;5040783;28;20110;-92
2023/12/26 15:07:31;;;;;;;10.57;1.90;;;7.10;99.90;;;;;;5036520;28;20440;-91
2023/12/26 15:09:57;;;;;;;7.72;1.70;;;7.10;99.90;;;;;;5031460;28;20036;-94
2023/12/26 15:12:23;;;;;;;11.80;2.20;;;7.10;99.90;;;;;;5056358;28;20044;-93
2023/12/26 15:14:49;;;;;;;6.75;1.63;;;7.10;99.90;;;;;;5040155;28;20096;-90
2023/12/26 15:17:15;;;;;;;7.95;2.08;;;7.10;99.90;;;;;;5034414;28;20044;-90
2023/12/26 15:19:41;;;;;;;6.95;2.13;;;7.00;99.90;;;;;;5066414;28;20953;-92
2023/12/26 15:22:07;;;;;;;7.97;1.88;;;7.10;99.90;;;;;;5079667;28;20052;-92
2023/12/26 15:24:32;;;;;;;8.60;1.85;;;7.00;99.90;;;;;;5078762;28;20062;-92
2023/12/26 15:26:58;;;;;;;9.30;2.10;;;7.00;99.90;;;;;;5070583;28;20066;-91
2023/12/26 15:29:24;;;;;;;7.40;1.75;;;7.10;99.90;;;;;;5043056;28;20155;-90
2023/12/26 15:31:50;;;;;;;7.68;1.83;;;7.00;99.90;;;;;;5052750;28;20043;-91
2023/12/26 15:34:15;;;;;;;9.82;1.92;;;7.10;99.90;;;;;;5033182;28;20032;-91
2023/12/26 15:36:41;;;;;;;7.07;1.90;;;7.10;99.90;;;;;;5048671;28;20032;-92